sensor_id;sensor_type;location;lat;lon;timestamp;pressure;altitude;pressure_sealevel;temperature;humidity
64610;BME280;51019;46.090;6.350;2022-12-07T00:00:52;96476.47;;;-0.71;100.00
64610;BME280;51019;46.090;6.350;2022-12-07T00:03:20;96629.84;;;0.21;100.00
64610;BME280;51019;46.090;6.350;2022-12-07T00:05:47;96560.53;;;-0.35;100.00
64610;BME280;51019;46.090;6.350;2022-12-07T00:08:14;96462.31;;;-0.97;100.00
64610;BME280;51019;46.090;6.350;2022-12-07T00:10:44;96484.56;;;-0.79;100.00
64610;BME280;51019;46.090;6.350;2022-12-07T00:13:11;96634.94;;;0.05;100.00
64610;BME280;51019;46.090;6.350;2022-12-07T00:15:38;96549.53;;;-0.39;100.00
64610;BME280;51019;46.090;6.350;2022-12-07T00:18:05;96554.25;;;-0.47;100.00
64610;BME280;51019;46.090;6.350;2022-12-07T00:20:33;96531.28;;;-0.69;100.00
64610;BME280;51019;46.090;6.350;2022-12-07T00:23:00;96635.59;;;-0.09;100.00
64610;BME280;51019;46.090;6.350;2022-12-07T00:25:27;96633.50;;;-0.01;100.00
64610;BME280;51019;46.090;6.350;2022-12-07T00:27:56;96643.88;;;-0.02;100.00
64610;BME280;51019;46.090;6.350;2022-12-07T00:30:24;96602.88;;;-0.07;100.00
64610;BME280;51019;46.090;6.350;2022-12-07T00:32:51;96607.13;;;-0.06;100.00
64610;BME280;51019;46.090;6.350;2022-12-07T00:35:19;96631.06;;;0.14;100.00
64610;BME280;51019;46.090;6.350;2022-12-07T00:37:46;96633.41;;;0.18;100.00
64610;BME280;51019;46.090;6.350;2022-12-07T00:40:13;96623.66;;;0.08;100.00
64610;BME280;51019;46.090;6.350;2022-12-07T00:42:41;96566.22;;;-0.29;100.00
64610;BME280;51019;46.090;6.350;2022-12-07T00:45:11;96566.06;;;-0.26;100.00
64610;BME280;51019;46.090;6.350;2022-12-07T00:47:38;96619.06;;;0.13;100.00
64610;BME280;51019;46.090;6.350;2022-12-07T00:50:06;96616.78;;;0.41;100.00
64610;BME280;51019;46.090;6.350;2022-12-07T00:52:34;96619.59;;;0.36;100.00
64610;BME280;51019;46.090;6.350;2022-12-07T00:55:01;96609.59;;;0.30;100.00
64610;BME280;51019;46.090;6.350;2022-12-07T00:57:30;96620.22;;;0.57;100.00
64610;BME280;51019;46.090;6.350;2022-12-07T00:59:57;96607.69;;;0.34;100.00
64610;BME280;51019;46.090;6.350;2022-12-07T01:02:27;96626.94;;;0.44;100.00
64610;BME280;51019;46.090;6.350;2022-12-07T01:04:54;96530.00;;;-0.43;100.00
64610;BME280;51019;46.090;6.350;2022-12-07T01:07:22;96594.78;;;-0.16;100.00
64610;BME280;51019;46.090;6.350;2022-12-07T01:09:49;96519.63;;;-0.59;100.00
64610;BME280;51019;46.090;6.350;2022-12-07T01:12:16;96628.47;;;0.14;100.00
64610;BME280;51019;46.090;6.350;2022-12-07T01:14:43;96614.53;;;0.18;100.00
64610;BME280;51019;46.090;6.350;2022-12-07T01:17:11;96597.66;;;-0.05;100.00
64610;BME280;51019;46.090;6.350;2022-12-07T01:19:40;96567.56;;;-0.22;100.00
64610;BME280;51019;46.090;6.350;2022-12-07T01:22:07;96612.44;;;0.09;100.00
64610;BME280;51019;46.090;6.350;2022-12-07T01:24:35;96613.78;;;0.16;100.00
64610;BME280;51019;46.090;6.350;2022-12-07T01:27:02;96562.09;;;0.02;100.00
64610;BME280;51019;46.090;6.350;2022-12-07T01:29:30;96610.25;;;0.34;100.00
64610;BME280;51019;46.090;6.350;2022-12-07T01:31:57;96543.25;;;-0.16;100.00
64610;BME280;51019;46.090;6.350;2022-12-07T01:34:24;96613.66;;;0.34;100.00
64610;BME280;51019;46.090;6.350;2022-12-07T01:36:53;96616.03;;;0.39;100.00
64610;BME280;51019;46.090;6.350;2022-12-07T01:39:21;96616.16;;;0.36;100.00
64610;BME280;51019;46.090;6.350;2022-12-07T01:41:48;96608.50;;;0.34;100.00
64610;BME280;51019;46.090;6.350;2022-12-07T01:44:21;96614.63;;;0.49;100.00
64610;BME280;51019;46.090;6.350;2022-12-07T01:46:49;96621.38;;;0.52;100.00
64610;BME280;51019;46.090;6.350;2022-12-07T01:49:31;96617.34;;;0.46;100.00
64610;BME280;51019;46.090;6.350;2022-12-07T01:52:10;96630.09;;;0.49;100.00
64610;BME280;51019;46.090;6.350;2022-12-07T01:54:41;96629.03;;;0.53;100.00
64610;BME280;51019;46.090;6.350;2022-12-07T01:57:09;96631.69;;;0.52;100.00
64610;BME280;51019;46.090;6.350;2022-12-07T01:59:38;96600.66;;;0.20;100.00
64610;BME280;51019;46.090;6.350;2022-12-07T02:02:12;96624.22;;;0.30;100.00
64610;BME280;51019;46.090;6.350;2022-12-07T02:04:43;96562.88;;;-0.14;100.00
64610;BME280;51019;46.090;6.350;2022-12-07T02:07:12;96612.59;;;0.39;100.00
64610;BME280;51019;46.090;6.350;2022-12-07T02:09:40;96637.09;;;0.47;100.00
64610;BME280;51019;46.090;6.350;2022-12-07T02:12:07;96583.31;;;0.07;100.00
64610;BME280;51019;46.090;6.350;2022-12-07T02:14:35;96624.19;;;0.47;100.00
64610;BME280;51019;46.090;6.350;2022-12-07T02:17:10;96535.19;;;-0.10;100.00
64610;BME280;51019;46.090;6.350;2022-12-07T02:20:06;96636.44;;;0.59;100.00
64610;BME280;51019;46.090;6.350;2022-12-07T02:26:00;96627.25;;;0.71;100.00
64610;BME280;51019;46.090;6.350;2022-12-07T02:28:31;96636.22;;;0.64;100.00
64610;BME280;51019;46.090;6.350;2022-12-07T02:31:07;96630.38;;;0.60;100.00
64610;BME280;51019;46.090;6.350;2022-12-07T02:33:41;96622.91;;;0.56;100.00
64610;BME280;51019;46.090;6.350;2022-12-07T02:36:12;96619.16;;;0.61;100.00
64610;BME280;51019;46.090;6.350;2022-12-07T02:38:47;96617.25;;;0.65;100.00
64610;BME280;51019;46.090;6.350;2022-12-07T02:41:17;96620.75;;;0.64;100.00
64610;BME280;51019;46.090;6.350;2022-12-07T02:43:50;96616.28;;;0.67;100.00
64610;BME280;51019;46.090;6.350;2022-12-07T02:46:23;96619.75;;;0.66;100.00
64610;BME280;51019;46.090;6.350;2022-12-07T02:48:54;96614.41;;;0.69;100.00
64610;BME280;51019;46.090;6.350;2022-12-07T02:51:22;96612.69;;;0.70;100.00
64610;BME280;51019;46.090;6.350;2022-12-07T02:53:49;96609.59;;;0.63;100.00
64610;BME280;51019;46.090;6.350;2022-12-07T02:56:26;96577.53;;;0.52;100.00
64610;BME280;51019;46.090;6.350;2022-12-07T02:59:00;96605.69;;;0.72;100.00
64610;BME280;51019;46.090;6.350;2022-12-07T03:01:39;96603.94;;;0.72;100.00
64610;BME280;51019;46.090;6.350;2022-12-07T03:04:23;96599.53;;;0.75;100.00
64610;BME280;51019;46.090;6.350;2022-12-07T03:07:00;96581.38;;;0.60;100.00
64610;BME280;51019;46.090;6.350;2022-12-07T03:09:35;96598.75;;;0.57;100.00
64610;BME280;51019;46.090;6.350;2022-12-07T03:12:09;96597.28;;;0.68;100.00
64610;BME280;51019;46.090;6.350;2022-12-07T03:14:41;96598.56;;;0.77;100.00
64610;BME280;51019;46.090;6.350;2022-12-07T03:17:17;96582.91;;;0.64;100.00
64610;BME280;51019;46.090;6.350;2022-12-07T03:19:49;96590.97;;;0.74;100.00
64610;BME280;51019;46.090;6.350;2022-12-07T03:22:19;96596.88;;;0.76;100.00
64610;BME280;51019;46.090;6.350;2022-12-07T03:24:49;96542.69;;;0.45;100.00
64610;BME280;51019;46.090;6.350;2022-12-07T03:27:21;96510.94;;;0.27;100.00
64610;BME280;51019;46.090;6.350;2022-12-07T03:29:54;96594.97;;;0.80;100.00
64610;BME280;51019;46.090;6.350;2022-12-07T03:32:30;96559.84;;;0.61;100.00
64610;BME280;51019;46.090;6.350;2022-12-07T03:35:02;96594.97;;;0.80;100.00
64610;BME280;51019;46.090;6.350;2022-12-07T03:37:33;96531.00;;;0.38;100.00
64610;BME280;51019;46.090;6.350;2022-12-07T03:40:06;96490.22;;;0.13;100.00
64610;BME280;51019;46.090;6.350;2022-12-07T03:42:35;96577.75;;;0.64;100.00
64610;BME280;51019;46.090;6.350;2022-12-07T03:45:04;96598.88;;;0.71;100.00
64610;BME280;51019;46.090;6.350;2022-12-07T03:47:39;96586.03;;;0.69;100.00
64610;BME280;51019;46.090;6.350;2022-12-07T03:50:13;96565.97;;;0.59;100.00
64610;BME280;51019;46.090;6.350;2022-12-07T03:52:46;96591.22;;;0.69;100.00
64610;BME280;51019;46.090;6.350;2022-12-07T03:55:19;96592.78;;;0.72;100.00
64610;BME280;51019;46.090;6.350;2022-12-07T03:57:50;96599.53;;;0.75;100.00
64610;BME280;51019;46.090;6.350;2022-12-07T04:00:19;96476.16;;;0.03;100.00
64610;BME280;51019;46.090;6.350;2022-12-07T04:02:51;96585.81;;;0.74;100.00
64610;BME280;51019;46.090;6.350;2022-12-07T04:05:18;96560.50;;;0.65;100.00
64610;BME280;51019;46.090;6.350;2022-12-07T04:07:46;96411.47;;;-0.42;100.00
64610;BME280;51019;46.090;6.350;2022-12-07T04:10:14;96580.97;;;0.68;100.00
64610;BME280;51019;46.090;6.350;2022-12-07T04:12:41;96529.94;;;0.42;100.00
64610;BME280;51019;46.090;6.350;2022-12-07T04:15:10;96528.59;;;0.34;100.00
64610;BME280;51019;46.090;6.350;2022-12-07T04:17:38;96563.84;;;0.67;100.00
64610;BME280;51019;46.090;6.350;2022-12-07T04:20:09;96578.66;;;0.79;100.00
64610;BME280;51019;46.090;6.350;2022-12-07T04:22:36;96583.22;;;0.74;100.00
64610;BME280;51019;46.090;6.350;2022-12-07T04:25:04;96511.56;;;0.32;100.00
64610;BME280;51019;46.090;6.350;2022-12-07T04:27:32;96586.31;;;0.65;100.00
64610;BME280;51019;46.090;6.350;2022-12-07T04:30:00;96567.09;;;0.38;100.00
64610;BME280;51019;46.090;6.350;2022-12-07T04:32:27;96565.69;;;0.32;100.00
64610;BME280;51019;46.090;6.350;2022-12-07T04:34:54;96574.47;;;0.45;100.00
64610;BME280;51019;46.090;6.350;2022-12-07T04:37:23;96504.19;;;0.09;100.00
64610;BME280;51019;46.090;6.350;2022-12-07T04:39:51;96436.53;;;-0.28;100.00
64610;BME280;51019;46.090;6.350;2022-12-07T04:42:19;96584.22;;;0.56;100.00
64610;BME280;51019;46.090;6.350;2022-12-07T04:44:46;96577.31;;;0.56;100.00
64610;BME280;51019;46.090;6.350;2022-12-07T04:47:14;96586.13;;;0.52;100.00
64610;BME280;51019;46.090;6.350;2022-12-07T04:49:41;96542.50;;;0.32;100.00
64610;BME280;51019;46.090;6.350;2022-12-07T04:52:08;96514.44;;;0.10;100.00
64610;BME280;51019;46.090;6.350;2022-12-07T04:54:38;96583.03;;;0.61;100.00
64610;BME280;51019;46.090;6.350;2022-12-07T04:57:05;96509.69;;;0.18;100.00
64610;BME280;51019;46.090;6.350;2022-12-07T04:59:32;96525.34;;;0.31;100.00
64610;BME280;51019;46.090;6.350;2022-12-07T05:01:59;96541.81;;;0.28;100.00
64610;BME280;51019;46.090;6.350;2022-12-07T05:04:27;96568.47;;;0.45;100.00
64610;BME280;51019;46.090;6.350;2022-12-07T05:06:54;96573.78;;;0.42;100.00
64610;BME280;51019;46.090;6.350;2022-12-07T05:09:22;96544.88;;;0.35;100.00
64610;BME280;51019;46.090;6.350;2022-12-07T05:11:51;96425.63;;;-0.33;100.00
64610;BME280;51019;46.090;6.350;2022-12-07T05:14:19;96561.31;;;0.50;100.00
64610;BME280;51019;46.090;6.350;2022-12-07T05:16:49;96557.81;;;0.51;100.00
64610;BME280;51019;46.090;6.350;2022-12-07T05:19:17;96563.75;;;0.53;100.00
64610;BME280;51019;46.090;6.350;2022-12-07T05:21:45;96556.84;;;0.53;100.00
64610;BME280;51019;46.090;6.350;2022-12-07T05:24:14;96549.59;;;0.44;100.00
64610;BME280;51019;46.090;6.350;2022-12-07T05:26:41;96447.78;;;-0.13;100.00
64610;BME280;51019;46.090;6.350;2022-12-07T05:29:12;96517.28;;;0.37;100.00
64610;BME280;51019;46.090;6.350;2022-12-07T05:31:40;96537.69;;;0.57;100.00
64610;BME280;51019;46.090;6.350;2022-12-07T05:34:08;96541.94;;;0.58;100.00
64610;BME280;51019;46.090;6.350;2022-12-07T05:36:36;96546.22;;;0.75;100.00
64610;BME280;51019;46.090;6.350;2022-12-07T05:39:05;96527.56;;;0.70;100.00
64610;BME280;51019;46.090;6.350;2022-12-07T05:41:33;96536.88;;;0.72;100.00
64610;BME280;51019;46.090;6.350;2022-12-07T05:44:19;96504.25;;;0.40;100.00
64610;BME280;51019;46.090;6.350;2022-12-07T05:46:46;96549.19;;;0.83;100.00
64610;BME280;51019;46.090;6.350;2022-12-07T05:49:14;96555.19;;;0.84;100.00
64610;BME280;51019;46.090;6.350;2022-12-07T05:51:41;96542.03;;;0.72;100.00
64610;BME280;51019;46.090;6.350;2022-12-07T05:54:08;96534.38;;;0.71;100.00
64610;BME280;51019;46.090;6.350;2022-12-07T05:56:35;96550.53;;;0.75;100.00
64610;BME280;51019;46.090;6.350;2022-12-07T05:59:03;96551.44;;;0.73;100.00
64610;BME280;51019;46.090;6.350;2022-12-07T06:01:49;96541.53;;;0.66;100.00
64610;BME280;51019;46.090;6.350;2022-12-07T06:04:17;96546.53;;;0.69;100.00
64610;BME280;51019;46.090;6.350;2022-12-07T06:06:44;96543.88;;;0.55;100.00
64610;BME280;51019;46.090;6.350;2022-12-07T06:09:12;96540.72;;;0.65;100.00
64610;BME280;51019;46.090;6.350;2022-12-07T06:11:39;96536.84;;;0.41;100.00
64610;BME280;51019;46.090;6.350;2022-12-07T06:14:35;96537.88;;;0.54;100.00
64610;BME280;51019;46.090;6.350;2022-12-07T06:17:05;96536.88;;;0.72;100.00
64610;BME280;51019;46.090;6.350;2022-12-07T06:19:32;96535.03;;;0.59;100.00
64610;BME280;51019;46.090;6.350;2022-12-07T06:22:00;96544.78;;;0.69;100.00
64610;BME280;51019;46.090;6.350;2022-12-07T06:24:28;96537.94;;;0.68;100.00
64610;BME280;51019;46.090;6.350;2022-12-07T06:26:55;96463.97;;;0.22;100.00
64610;BME280;51019;46.090;6.350;2022-12-07T06:29:23;96484.09;;;0.31;100.00
64610;BME280;51019;46.090;6.350;2022-12-07T06:31:50;96549.94;;;0.69;100.00
64610;BME280;51019;46.090;6.350;2022-12-07T06:34:21;96448.16;;;0.12;100.00
64610;BME280;51019;46.090;6.350;2022-12-07T06:36:49;96540.28;;;0.73;100.00
64610;BME280;51019;46.090;6.350;2022-12-07T06:39:20;96536.38;;;0.82;100.00
64610;BME280;51019;46.090;6.350;2022-12-07T06:41:47;96535.47;;;0.83;100.00
64610;BME280;51019;46.090;6.350;2022-12-07T06:44:14;96405.66;;;-0.12;100.00
64610;BME280;51019;46.090;6.350;2022-12-07T06:46:42;96533.06;;;0.64;100.00
64610;BME280;51019;46.090;6.350;2022-12-07T06:49:09;96552.84;;;0.79;100.00
64610;BME280;51019;46.090;6.350;2022-12-07T06:51:39;96541.53;;;0.66;100.00
64610;BME280;51019;46.090;6.350;2022-12-07T06:54:07;96557.34;;;0.76;100.00
64610;BME280;51019;46.090;6.350;2022-12-07T06:56:35;96549.66;;;0.58;100.00
64610;BME280;51019;46.090;6.350;2022-12-07T06:59:03;96551.78;;;0.67;100.00
64610;BME280;51019;46.090;6.350;2022-12-07T07:01:31;96551.94;;;0.64;100.00
64610;BME280;51019;46.090;6.350;2022-12-07T07:03:58;96520.88;;;0.50;100.00
64610;BME280;51019;46.090;6.350;2022-12-07T07:06:25;96523.88;;;0.43;100.00
64610;BME280;51019;46.090;6.350;2022-12-07T07:08:55;96552.16;;;0.60;100.00
64610;BME280;51019;46.090;6.350;2022-12-07T07:11:22;96562.34;;;0.63;100.00
64610;BME280;51019;46.090;6.350;2022-12-07T07:13:49;96561.16;;;0.68;100.00
64610;BME280;51019;46.090;6.350;2022-12-07T07:16:17;96565.41;;;0.69;100.00
64610;BME280;51019;46.090;6.350;2022-12-07T07:18:44;96408.69;;;-0.21;100.00
64610;BME280;51019;46.090;6.350;2022-12-07T07:21:11;96569.25;;;0.62;100.00
64610;BME280;51019;46.090;6.350;2022-12-07T07:23:38;96552.25;;;0.58;100.00
64610;BME280;51019;46.090;6.350;2022-12-07T07:26:07;96558.91;;;0.62;100.00
64610;BME280;51019;46.090;6.350;2022-12-07T07:28:35;96565.41;;;0.69;100.00
64610;BME280;51019;46.090;6.350;2022-12-07T07:31:02;96563.16;;;0.63;100.00
64610;BME280;51019;46.090;6.350;2022-12-07T07:35:57;96565.47;;;0.68;100.00
64610;BME280;51019;46.090;6.350;2022-12-07T07:38:24;96578.50;;;0.66;100.00
64610;BME280;51019;46.090;6.350;2022-12-07T07:40:51;96479.63;;;0.02;100.00
64610;BME280;51019;46.090;6.350;2022-12-07T07:43:20;96563.59;;;0.71;100.00
64610;BME280;51019;46.090;6.350;2022-12-07T07:45:48;96580.56;;;0.76;100.00
64610;BME280;51019;46.090;6.350;2022-12-07T07:48:15;96561.66;;;0.59;100.00
64610;BME280;51019;46.090;6.350;2022-12-07T07:50:42;96488.25;;;0.18;100.00
64610;BME280;51019;46.090;6.350;2022-12-07T07:53:10;96570.66;;;0.68;100.00
64610;BME280;51019;46.090;6.350;2022-12-07T07:55:37;96561.09;;;0.70;100.00
64610;BME280;51019;46.090;6.350;2022-12-07T07:58:04;96566.94;;;0.73;100.00
64610;BME280;51019;46.090;6.350;2022-12-07T08:00:33;96572.56;;;0.80;100.00
64610;BME280;51019;46.090;6.350;2022-12-07T08:03:00;96567.53;;;0.79;100.00
64610;BME280;51019;46.090;6.350;2022-12-07T08:05:27;96570.09;;;0.79;100.00
64610;BME280;51019;46.090;6.350;2022-12-07T08:07:54;96534.03;;;0.61;100.00
64610;BME280;51019;46.090;6.350;2022-12-07T08:10:22;96565.03;;;0.77;100.00
64610;BME280;51019;46.090;6.350;2022-12-07T08:12:49;96568.25;;;0.81;100.00
64610;BME280;51019;46.090;6.350;2022-12-07T08:15:48;96574.00;;;0.86;100.00
64610;BME280;51019;46.090;6.350;2022-12-07T08:18:15;96567.75;;;0.74;100.00
64610;BME280;51019;46.090;6.350;2022-12-07T08:20:43;96572.19;;;0.88;100.00
64610;BME280;51019;46.090;6.350;2022-12-07T08:23:10;96573.44;;;0.96;100.00
64610;BME280;51019;46.090;6.350;2022-12-07T08:25:37;96567.66;;;0.91;100.00
64610;BME280;51019;46.090;6.350;2022-12-07T08:28:05;96548.88;;;0.73;100.00
64610;BME280;51019;46.090;6.350;2022-12-07T08:30:33;96571.84;;;0.94;100.00
64610;BME280;51019;46.090;6.350;2022-12-07T08:33:01;96576.16;;;0.93;100.00
64610;BME280;51019;46.090;6.350;2022-12-07T08:35:29;96579.41;;;0.97;100.00
64610;BME280;51019;46.090;6.350;2022-12-07T08:37:56;96584.06;;;1.06;100.00
64610;BME280;51019;46.090;6.350;2022-12-07T08:40:24;96449.69;;;0.32;100.00
64610;BME280;51019;46.090;6.350;2022-12-07T08:42:51;96451.44;;;0.31;100.00
64610;BME280;51019;46.090;6.350;2022-12-07T08:45:20;96585.84;;;1.21;100.00
64610;BME280;51019;46.090;6.350;2022-12-07T08:47:50;96584.00;;;1.23;100.00
64610;BME280;51019;46.090;6.350;2022-12-07T08:50:21;96583.25;;;1.21;100.00
64610;BME280;51019;46.090;6.350;2022-12-07T08:52:51;96559.19;;;1.05;100.00
64610;BME280;51019;46.090;6.350;2022-12-07T08:55:19;96587.38;;;1.39;100.00
64610;BME280;51019;46.090;6.350;2022-12-07T08:57:47;96462.16;;;0.55;100.00
64610;BME280;51019;46.090;6.350;2022-12-07T09:00:15;96529.03;;;1.05;100.00
64610;BME280;51019;46.090;6.350;2022-12-07T09:02:44;96514.38;;;1.06;100.00
64610;BME280;51019;46.090;6.350;2022-12-07T09:05:12;96528.56;;;0.99;100.00
64610;BME280;51019;46.090;6.350;2022-12-07T09:07:42;96586.47;;;1.40;100.00
64610;BME280;51019;46.090;6.350;2022-12-07T09:10:11;96591.63;;;1.40;100.00
64610;BME280;51019;46.090;6.350;2022-12-07T09:12:38;96601.44;;;1.50;100.00
64610;BME280;51019;46.090;6.350;2022-12-07T09:15:06;96571.66;;;1.28;100.00
64610;BME280;51019;46.090;6.350;2022-12-07T09:17:34;96599.31;;;1.42;100.00
64610;BME280;51019;46.090;6.350;2022-12-07T09:20:03;96601.72;;;1.45;100.00
64610;BME280;51019;46.090;6.350;2022-12-07T09:22:31;96586.47;;;1.40;100.00
64610;BME280;51019;46.090;6.350;2022-12-07T09:25:01;96542.94;;;1.19;100.00
64610;BME280;51019;46.090;6.350;2022-12-07T09:27:29;96596.47;;;1.31;100.00
64610;BME280;51019;46.090;6.350;2022-12-07T09:29:56;96579.25;;;1.16;100.00
64610;BME280;51019;46.090;6.350;2022-12-07T09:32:24;96608.31;;;1.35;100.00
64610;BME280;51019;46.090;6.350;2022-12-07T09:34:51;96608.81;;;1.41;100.00
64610;BME280;51019;46.090;6.350;2022-12-07T09:37:19;96596.56;;;1.29;100.00
64610;BME280;51019;46.090;6.350;2022-12-07T09:39:46;96588.41;;;1.21;100.00
64610;BME280;51019;46.090;6.350;2022-12-07T09:42:26;96582.34;;;1.22;100.00
64610;BME280;51019;46.090;6.350;2022-12-07T09:44:54;96615.63;;;1.42;100.00
64610;BME280;51019;46.090;6.350;2022-12-07T09:47:22;96588.97;;;1.42;100.00
64610;BME280;51019;46.090;6.350;2022-12-07T09:49:50;96611.88;;;1.48;100.00
64610;BME280;51019;46.090;6.350;2022-12-07T09:52:20;96613.06;;;1.42;100.00
64610;BME280;51019;46.090;6.350;2022-12-07T09:54:49;96610.19;;;1.47;100.00
64610;BME280;51019;46.090;6.350;2022-12-07T09:57:29;96483.19;;;0.79;100.00
64610;BME280;51019;46.090;6.350;2022-12-07T10:00:00;96588.50;;;1.35;100.00
64610;BME280;51019;46.090;6.350;2022-12-07T10:02:35;96602.28;;;1.50;100.00
64610;BME280;51019;46.090;6.350;2022-12-07T10:05:05;96604.47;;;1.58;100.00
64610;BME280;51019;46.090;6.350;2022-12-07T10:07:33;96599.78;;;1.64;100.00
64610;BME280;51019;46.090;6.350;2022-12-07T10:10:03;96506.31;;;0.96;100.00
64610;BME280;51019;46.090;6.350;2022-12-07T10:12:53;96529.44;;;1.14;100.00
64610;BME280;51019;46.090;6.350;2022-12-07T10:15:21;96446.94;;;0.66;100.00
64610;BME280;51019;46.090;6.350;2022-12-07T10:17:49;96588.28;;;1.54;100.00
64610;BME280;51019;46.090;6.350;2022-12-07T10:20:23;96479.78;;;0.94;100.00
64610;BME280;51019;46.090;6.350;2022-12-07T10:23:01;96587.63;;;1.51;100.00
64610;BME280;51019;46.090;6.350;2022-12-07T10:25:32;96590.59;;;1.59;100.00
64610;BME280;51019;46.090;6.350;2022-12-07T10:28:10;96467.31;;;0.87;100.00
64610;BME280;51019;46.090;6.350;2022-12-07T10:30:55;96550.28;;;1.56;100.00
64610;BME280;51019;46.090;6.350;2022-12-07T10:33:33;96556.69;;;1.35;100.00
64610;BME280;51019;46.090;6.350;2022-12-07T10:36:02;96574.88;;;1.48;100.00
64610;BME280;51019;46.090;6.350;2022-12-07T10:38:45;96568.75;;;1.64;100.00
64610;BME280;51019;46.090;6.350;2022-12-07T10:41:13;96476.81;;;1.16;100.00
64610;BME280;51019;46.090;6.350;2022-12-07T10:43:49;96536.19;;;1.62;100.00
64610;BME280;51019;46.090;6.350;2022-12-07T10:46:43;96557.44;;;1.67;100.00
64610;BME280;51019;46.090;6.350;2022-12-07T10:49:35;96555.59;;;1.69;100.00
64610;BME280;51019;46.090;6.350;2022-12-07T10:52:11;96504.13;;;1.50;100.00
64610;BME280;51019;46.090;6.350;2022-12-07T10:54:50;96556.34;;;1.85;100.00
64610;BME280;51019;46.090;6.350;2022-12-07T10:57:32;96512.16;;;1.45;100.00
64610;BME280;51019;46.090;6.350;2022-12-07T11:00:21;96524.97;;;1.77;100.00
64610;BME280;51019;46.090;6.350;2022-12-07T11:03:13;96513.34;;;1.84;100.00
64610;BME280;51019;46.090;6.350;2022-12-07T11:05:43;96536.91;;;1.94;100.00
64610;BME280;51019;46.090;6.350;2022-12-07T11:08:20;96497.09;;;1.68;100.00
64610;BME280;51019;46.090;6.350;2022-12-07T11:10:54;96531.19;;;1.89;100.00
64610;BME280;51019;46.090;6.350;2022-12-07T11:13:27;96510.41;;;1.90;100.00
64610;BME280;51019;46.090;6.350;2022-12-07T11:16:07;96521.31;;;2.09;100.00
64610;BME280;51019;46.090;6.350;2022-12-07T11:18:46;96489.53;;;1.79;100.00
64610;BME280;51019;46.090;6.350;2022-12-07T11:21:24;96514.88;;;1.72;100.00
64610;BME280;51019;46.090;6.350;2022-12-07T11:24:00;96515.28;;;1.80;100.00
64610;BME280;51019;46.090;6.350;2022-12-07T11:26:46;96517.06;;;1.80;100.00
64610;BME280;51019;46.090;6.350;2022-12-07T11:29:49;96499.34;;;1.88;100.00
64610;BME280;51019;46.090;6.350;2022-12-07T11:32:25;96477.16;;;1.84;100.00
64610;BME280;51019;46.090;6.350;2022-12-07T11:35:05;96492.13;;;1.93;100.00
64610;BME280;51019;46.090;6.350;2022-12-07T11:37:36;96501.00;;;2.03;100.00
64610;BME280;51019;46.090;6.350;2022-12-07T11:40:17;96395.38;;;1.40;100.00
64610;BME280;51019;46.090;6.350;2022-12-07T11:42:52;96497.69;;;2.15;100.00
64610;BME280;51019;46.090;6.350;2022-12-07T11:45:27;96498.03;;;1.95;100.00
64610;BME280;51019;46.090;6.350;2022-12-07T11:48:00;96493.63;;;1.97;100.00
64610;BME280;51019;46.090;6.350;2022-12-07T11:50:33;96478.72;;;1.72;100.00
64610;BME280;51019;46.090;6.350;2022-12-07T11:53:10;96507.81;;;2.04;100.00
64610;BME280;51019;46.090;6.350;2022-12-07T11:55:44;96496.47;;;2.07;100.00
64610;BME280;51019;46.090;6.350;2022-12-07T11:58:26;96419.78;;;1.79;100.00
64610;BME280;51019;46.090;6.350;2022-12-07T12:01:13;96490.66;;;2.17;100.00
64610;BME280;51019;46.090;6.350;2022-12-07T12:03:45;96431.03;;;1.78;100.00
64610;BME280;51019;46.090;6.350;2022-12-07T12:06:14;96484.75;;;2.30;100.00
64610;BME280;51019;46.090;6.350;2022-12-07T12:08:45;96473.22;;;2.21;100.00
64610;BME280;51019;46.090;6.350;2022-12-07T12:11:18;96480.13;;;2.06;100.00
64610;BME280;51019;46.090;6.350;2022-12-07T12:20:01;96437.09;;;2.05;100.00
64610;BME280;51019;46.090;6.350;2022-12-07T12:22:35;96466.66;;;2.15;100.00
64610;BME280;51019;46.090;6.350;2022-12-07T12:25:05;96455.94;;;2.22;100.00
64610;BME280;51019;46.090;6.350;2022-12-07T12:27:37;96453.06;;;2.26;100.00
64610;BME280;51019;46.090;6.350;2022-12-07T12:30:23;96473.22;;;2.35;100.00
64610;BME280;51019;46.090;6.350;2022-12-07T12:32:51;96474.59;;;2.41;100.00
64610;BME280;51019;46.090;6.350;2022-12-07T12:35:28;96466.28;;;2.36;100.00
64610;BME280;51019;46.090;6.350;2022-12-07T12:41:03;96460.94;;;2.10;100.00
64610;BME280;51019;46.090;6.350;2022-12-07T12:43:49;96458.44;;;2.23;100.00
64610;BME280;51019;46.090;6.350;2022-12-07T12:46:51;96451.53;;;2.24;100.00
64610;BME280;51019;46.090;6.350;2022-12-07T12:49:43;96396.31;;;2.10;100.00
64610;BME280;51019;46.090;6.350;2022-12-07T12:58:34;96451.47;;;2.52;100.00
64610;BME280;51019;46.090;6.350;2022-12-07T13:04:40;96435.13;;;2.51;100.00
64610;BME280;51019;46.090;6.350;2022-12-07T13:10:21;96428.25;;;2.24;100.00
64610;BME280;51019;46.090;6.350;2022-12-07T13:12:57;96434.09;;;2.54;100.00
64610;BME280;51019;46.090;6.350;2022-12-07T13:15:35;96436.00;;;2.65;100.00
64610;BME280;51019;46.090;6.350;2022-12-07T13:18:24;96434.91;;;2.69;100.00
64610;BME280;51019;46.090;6.350;2022-12-07T13:20:55;96426.16;;;2.57;100.00
64610;BME280;51019;46.090;6.350;2022-12-07T13:23:29;96422.88;;;2.68;100.00
64610;BME280;51019;46.090;6.350;2022-12-07T13:26:05;96413.44;;;2.40;100.00
64610;BME280;51019;46.090;6.350;2022-12-07T13:28:38;96418.81;;;2.64;100.00
64610;BME280;51019;46.090;6.350;2022-12-07T13:31:32;96413.94;;;2.59;100.00
64610;BME280;51019;46.090;6.350;2022-12-07T13:34:01;96409.16;;;2.53;100.00
64610;BME280;51019;46.090;6.350;2022-12-07T13:36:31;96350.13;;;2.04;100.00
64610;BME280;51019;46.090;6.350;2022-12-07T13:39:15;96316.94;;;1.84;100.00
64610;BME280;51019;46.090;6.350;2022-12-07T13:41:44;96379.28;;;2.35;100.00
64610;BME280;51019;46.090;6.350;2022-12-07T13:44:13;96407.66;;;2.49;100.00
64610;BME280;51019;46.090;6.350;2022-12-07T13:46:49;96404.00;;;2.39;100.00
64610;BME280;51019;46.090;6.350;2022-12-07T13:49:22;96402.06;;;2.42;100.00